• Join FlightAware (Why Join?)
  • Login
  • US Flag 
01:59PM EDT


 

Airport Tracker/Info


-or-


 

Live Flight TrackerFlight Track Log ✈ N682RW ✈ 17-Apr-2013 ✈ CYYC - CYVR

Flight Track Log - Related Links

Times and Time Zones

All times are in EDT time to prevent confusion due to time zone crossing. See the N682RW flight status page for this flight to view local times or setup timezone preferences in your user account.

Time Position Orientation Groundspeed Altitude Reporting Facility
EDT Latitude Longitude Course Direction KTS MPH feet Rate Location/Type
02:01AM 51.0500 -114.0500 255° West 190 219 5,100  Level Edmonton Center
02:02AM 50.9833 -114.0333 171° South 240 276 7,400 2,460 Climbing Edmonton Center
02:03AM 50.9333 -114.1333 232° Southwest 260 299 10,100 2,160 Climbing Edmonton Center
02:04AM 50.9667 -114.2500 294° West 310 357 11,800 2,040 Climbing Edmonton Center
02:05AM 51.0000 -114.4000 290° West 340 391 14,200 2,520 Climbing Edmonton Center
02:06AM 50.9309 -115.1083 255° West  Level Estimated
02:06AM 51.0167 -114.5667 279° West 350 403 16,900  Level Edmonton Center
02:07AM 51.0333 -114.7000 281° West 370 426 19,500 2,400 Climbing Edmonton Center
02:08AM 51.0167 -114.8833 262° West 380 437 21,700 1,800 Climbing Edmonton Center
02:09AM 51.0000 -115.0333 260° West 390 449 23,200 1,680 Climbing Edmonton Center
02:10AM 51.0000 -115.2333 270° West 400 460 25,100 1,800 Climbing Edmonton Center
02:11AM 50.9833 -115.4167 262° West 410 472 26,900 1,620 Climbing Edmonton Center
02:11AM 50.9833 -115.4667 270° West 420 483 27,700 1,560 Climbing Vancouver Center
02:12AM 50.9500 -115.6167 251° West 430 495 29,400 1,500 Climbing Vancouver Center
02:13AM 50.9167 -115.8167 255° West 430 495 30,800 1,260 Climbing Vancouver Center
02:14AM 50.8833 -115.9833 252° West 420 483 32,000 780 Climbing Vancouver Center
02:15AM 50.8333 -116.1333 242° Southwest 420 483 32,000  Level Edmonton Center
02:16AM 50.8000 -116.2833 251° West 430 495 32,000  Level Edmonton Center
02:17AM 50.7667 -116.4667 254° West 420 483 32,000  Level Edmonton Center
02:17AM 50.7833 -116.5000 308° West 430 495 32,000  Level Vancouver Center
02:18AM 50.7500 -116.6833 254° West 430 495 32,000  Level Edmonton Center
02:19AM 50.7167 -116.8333 251° West 430 495 32,000  Level Edmonton Center
02:20AM 50.6667 -117.0333 249° West 430 495 32,000  Level Edmonton Center
02:21AM 50.6333 -117.2167 254° West 430 495 32,000  Level Edmonton Center
02:21AM 50.6167 -117.2333 212° Southwest 430 495 32,000  Level Vancouver Center
02:22AM 50.5833 -117.3833 251° West 430 495 32,000  Level Edmonton Center
02:22AM 50.5833 -117.4333 270° West 430 495 32,000  Level Vancouver Center
02:23AM 50.5500 -117.5833 251° West 430 495 32,000  Level Vancouver Center
02:24AM 50.5167 -117.7333 251° West 430 495 32,000  Level Edmonton Center
02:25AM 50.4667 -117.9167 247° West 430 495 32,000  Level Edmonton Center
02:26AM 50.4333 -118.1000 254° West 430 495 32,000  Level Edmonton Center
02:26AM 50.4333 -118.1333 270° West 430 495 32,000  Level Vancouver Center
02:27AM 50.4000 -118.3167 254° West 430 495 32,000  Level Vancouver Center
02:28AM 50.3667 -118.4833 253° West 430 495 32,000  Level Vancouver Center
02:29AM 50.3167 -118.6500 245° Southwest 430 495 32,000  Level Vancouver Center
02:30AM 50.2833 -118.8333 254° West 430 495 32,000  Level Vancouver Center
02:31AM 50.2333 -119.0167 247° West 430 495 32,000  Level Vancouver Center
02:32AM 50.2000 -119.1833 253° West 420 483 32,000  Level Vancouver Center
02:33AM 50.1667 -119.3667 254° West 430 495 32,000  Level Vancouver Center
02:34AM 50.1333 -119.5500 254° West 430 495 32,000  Level Vancouver Center
02:35AM 50.0833 -119.7167 245° Southwest 430 495 32,000  Level Vancouver Center
02:36AM 50.0333 -119.8667 243° Southwest 430 495 32,000  Level Vancouver Center
02:37AM 50.0000 -120.0500 254° West 430 495 32,000  Level Vancouver Center
02:38AM 49.9500 -120.2500 249° West 430 495 32,000  Level Vancouver Center
02:39AM 49.9167 -120.4000 251° West 430 495 32,000  Level Vancouver Center
02:40AM 49.8833 -120.5833 254° West 430 495 32,000  Level Vancouver Center
02:42AM 49.8419 -120.7632 250° West  Level FlightAware Approximate
02:49AM 49.5840 -121.7648 249° West  Level FlightAware Approximate
02:50AM 49.5481 -121.9085 249° West  Level FlightAware Approximate
02:51AM 49.5156 -122.0528 238° Southwest  Level FlightAware Approximate
02:52AM 49.4709 -122.1892 251° West  Level FlightAware Approximate
02:53AM 49.4340 -122.3315 243° Southwest  Level FlightAware Approximate
02:54AM 49.3894 -122.4688 245° Southwest  Level FlightAware Approximate
02:55AM 49.3477 -122.6081 246° West  Level FlightAware Approximate
02:56AM 49.3101 -122.7498 253° West  Level FlightAware Approximate
02:57AM 49.2697 -122.8880 249° West  Level FlightAware Approximate
02:58AM 49.2333 -123.0202 270° West  Level FlightAware Approximate
02:59AM 49.1915 -123.1507 249° West  Level FlightAware Approximate
03:00AM 49.1833 -123.1833 249° West  Level FlightAware Approximate
03:01AM 49.1939 -123.1844 249° West  Level Estimated
03:02AM 49.1939 -123.1844 249° West  Level Estimated
03:03AM 49.1939 -123.1844 249° West  Level Estimated
03:04AM 49.1939 -123.1844 249° West  Level Estimated
03:05AM 49.1939 -123.1844 249° West  Level Estimated
03:06AM 49.1939 -123.1844 249° West  Level Estimated
03:07AM 49.1939 -123.1844 249° West  Level Estimated
03:08AM 49.1939 -123.1844 249° West  Level Estimated
03:09AM 49.1939 -123.1844 249° West  Level Estimated
03:10AM 49.1939 -123.1844 249° West  Level Estimated
03:11AM 49.1939 -123.1844 249° West  Level Estimated
03:12AM 49.1939 -123.1844 249° West  Level Estimated
03:13AM 49.1939 -123.1844 249° West  Level Estimated
03:14AM 49.1939 -123.1844 249° West  Level Estimated
03:15AM 49.1939 -123.1844 249° West  Level Estimated
03:16AM 49.1939 -123.1844 249° West  Level Estimated
03:17AM 49.1939 -123.1844 249° West  Level Estimated